Time;durP1;ratioP1;P1;durP2;ratioP2;P2;SDS_P1;SDS_P2;PMS_P1;PMS_P2;Temp;Humidity;BMP_temperature;BMP_pressure;BME280_temperature;BME280_humidity;BME280_pressure;Samples;Min_cycle;Max_cycle;Signal;HPM_P1;HPM_P2
2022/08/02 00:00:15;;;;;;;4.95;1.45;;;15.40;99.90;;;;;;4997090;28;20243;-91
2022/08/02 00:02:42;;;;;;;3.55;1.50;;;15.50;99.90;;;;;;4960815;28;20241;-85
2022/08/02 00:05:08;;;;;;;7.43;1.80;;;15.40;99.90;;;;;;4972114;28;20220;-89
2022/08/02 00:07:34;;;;;;;5.55;1.73;;;15.50;99.90;;;;;;4977282;28;20203;-84
2022/08/02 00:10:00;;;;;;;5.28;1.77;;;15.40;99.90;;;;;;4976215;28;20260;-84
2022/08/02 00:12:25;;;;;;;3.78;1.65;;;15.30;99.90;;;;;;4975838;28;20185;-88
2022/08/02 00:14:51;;;;;;;9.05;1.60;;;15.30;99.90;;;;;;4975596;28;20204;-85
2022/08/02 00:17:17;;;;;;;5.35;1.70;;;15.30;99.90;;;;;;4975854;28;20258;-85
2022/08/02 00:19:44;;;;;;;2.80;1.25;;;15.30;99.90;;;;;;4976814;28;20204;-89
2022/08/02 00:22:09;;;;;;;5.57;1.60;;;15.20;99.90;;;;;;4976822;28;20252;-87
2022/08/02 00:24:35;;;;;;;4.60;1.48;;;15.20;99.90;;;;;;4966564;28;20348;-87
2022/08/02 00:27:02;;;;;;;2.83;1.67;;;15.10;99.90;;;;;;4957176;28;20682;-86
2022/08/02 00:29:29;;;;;;;7.45;1.50;;;15.10;99.90;;;;;;4956481;29;20187;-86
2022/08/02 00:31:56;;;;;;;4.45;1.70;;;15.10;99.90;;;;;;4955943;29;20188;-88
2022/08/02 00:34:21;;;;;;;3.40;1.40;;;15.10;99.90;;;;;;4956364;28;20232;-85
2022/08/02 00:36:47;;;;;;;5.95;1.77;;;15.00;99.90;;;;;;4963310;28;20212;-88
2022/08/02 00:39:13;;;;;;;2.22;1.60;;;15.10;99.90;;;;;;4994806;28;20274;-84
2022/08/02 00:41:49;;;;;;;5.22;1.58;;;15.00;99.90;;;;;;4979061;28;20615;-87
2022/08/02 00:44:16;;;;;;;3.90;1.52;;;14.90;99.90;;;;;;4971707;28;20188;-85
2022/08/02 00:46:42;;;;;;;4.75;1.60;;;14.80;99.90;;;;;;4957128;29;20209;-86
2022/08/02 00:49:08;;;;;;;5.07;1.90;;;14.80;99.90;;;;;;4963419;28;20208;-86
2022/08/02 00:51:34;;;;;;;5.00;1.77;;;14.90;99.90;;;;;;5007994;28;20172;-87
2022/08/02 00:53:59;;;;;;;4.13;1.38;;;14.70;99.90;;;;;;4973810;28;20248;-85
2022/08/02 00:56:25;;;;;;;6.15;1.70;;;14.70;99.90;;;;;;4956656;28;20185;-86
2022/08/02 00:58:50;;;;;;;5.30;1.52;;;14.80;99.90;;;;;;4975032;28;20232;-87
2022/08/02 01:01:16;;;;;;;5.18;1.67;;;14.70;99.90;;;;;;4974703;28;20844;-86
2022/08/02 01:03:43;;;;;;;4.15;1.38;;;14.70;99.90;;;;;;4974827;28;20643;-84
2022/08/02 01:06:09;;;;;;;3.78;1.40;;;14.70;99.90;;;;;;5410864;23;20291;-89
2022/08/02 01:08:38;;;;;;;3.92;1.48;;;14.70;99.90;;;;;;4991481;28;20910;-91
2022/08/02 01:11:03;;;;;;;4.07;1.48;;;14.80;99.90;;;;;;4996350;28;20168;-91
2022/08/02 01:13:29;;;;;;;3.30;1.60;;;14.80;99.90;;;;;;4995106;28;20230;-91
2022/08/02 01:16:03;;;;;;;4.63;1.70;;;14.80;99.90;;;;;;4979766;28;20645;-91
2022/08/02 01:18:37;;;;;;;1.80;1.42;;;14.90;99.90;;;;;;4976661;28;20251;-91
2022/08/02 01:21:12;;;;;;;2.70;1.45;;;14.70;99.90;;;;;;4976742;28;20177;-90
2022/08/02 01:24:00;;;;;;;5.65;1.77;;;14.60;99.90;;;;;;4975148;28;20180;-89
2022/08/02 01:26:49;;;;;;;2.88;1.38;;;14.50;99.90;;;;;;4974518;28;20208;-84
2022/08/02 01:29:30;;;;;;;5.65;1.70;;;14.50;99.90;;;;;;4975005;28;20177;-87
2022/08/02 01:32:11;;;;;;;5.05;1.58;;;14.40;99.90;;;;;;4976194;28;20179;-86
2022/08/02 01:34:47;;;;;;;3.67;1.50;;;14.30;99.90;;;;;;4975050;28;20171;-87
2022/08/02 01:37:20;;;;;;;3.70;1.70;;;14.20;99.90;;;;;;4974860;28;20211;-88
2022/08/02 01:39:50;;;;;;;4.63;1.45;;;14.20;99.90;;;;;;4976295;28;20207;-88
2022/08/02 01:42:18;;;;;;;2.25;1.50;;;14.20;99.90;;;;;;4975041;28;20188;-88
2022/08/02 01:44:45;;;;;;;5.75;1.60;;;14.20;99.90;;;;;;4978114;28;20179;-89
2022/08/02 01:47:21;;;;;;;4.35;1.75;;;14.20;99.90;;;;;;4994375;28;20253;-89
2022/08/02 01:49:50;;;;;;;7.00;1.92;;;14.10;99.90;;;;;;4994249;28;20175;-87
2022/08/02 01:52:21;;;;;;;5.90;1.75;;;14.10;99.90;;;;;;4995264;28;20516;-89
2022/08/02 01:55:15;;;;;;;4.70;1.73;;;14.10;99.90;;;;;;4991415;28;20157;-90
2022/08/02 01:58:03;;;;;;;6.13;1.80;;;14.10;99.90;;;;;;4965996;28;20189;-91
2022/08/02 02:00:32;;;;;;;4.35;1.80;;;14.20;99.90;;;;;;4975844;28;20169;-88
2022/08/02 02:02:59;;;;;;;3.10;1.67;;;14.20;99.90;;;;;;4974593;28;20176;-89
2022/08/02 02:05:28;;;;;;;3.00;1.85;;;14.20;99.90;;;;;;4977609;28;20208;-91
2022/08/02 02:07:57;;;;;;;4.93;1.75;;;14.30;99.90;;;;;;4993895;28;20231;-90
2022/08/02 02:10:29;;;;;;;6.00;1.60;;;14.20;99.90;;;;;;4995250;28;20479;-89
2022/08/02 02:13:07;;;;;;;2.33;1.50;;;14.00;99.90;;;;;;4994010;28;20599;-88
2022/08/02 02:15:34;;;;;;;5.50;2.13;;;14.00;99.90;;;;;;4991082;28;20192;-90
2022/08/02 02:18:01;;;;;;;4.65;2.05;;;14.00;99.90;;;;;;4974488;28;20231;-88
2022/08/02 02:20:28;;;;;;;3.60;1.70;;;14.00;99.90;;;;;;4974426;28;20227;-88
2022/08/02 02:22:54;;;;;;;4.88;1.77;;;14.00;99.90;;;;;;4975502;28;20548;-85
2022/08/02 02:25:21;;;;;;;2.50;1.45;;;14.00;99.90;;;;;;4975580;28;20299;-83
2022/08/02 02:27:56;;;;;;;4.68;1.77;;;13.90;99.90;;;;;;4994099;28;20187;-84
2022/08/02 02:30:26;;;;;;;5.07;1.65;;;13.80;99.90;;;;;;4993758;28;20572;-83
2022/08/02 02:32:54;;;;;;;2.90;1.80;;;13.80;99.90;;;;;;4995097;28;20176;-89
2022/08/02 02:35:21;;;;;;;3.72;1.70;;;13.80;99.90;;;;;;4994885;28;20268;-90
2022/08/02 02:37:49;;;;;;;3.45;1.70;;;13.80;99.90;;;;;;4974402;28;20188;-91
2022/08/02 02:40:16;;;;;;;3.97;1.48;;;13.80;99.90;;;;;;4979167;28;20540;-88
2022/08/02 02:42:43;;;;;;;3.13;1.50;;;13.80;99.90;;;;;;4979286;28;20173;-89
2022/08/02 02:45:11;;;;;;;4.70;1.60;;;13.80;99.90;;;;;;4977636;28;20211;-90
2022/08/02 02:47:37;;;;;;;2.47;1.55;;;13.80;99.90;;;;;;4996529;28;20188;-92
2022/08/02 02:50:06;;;;;;;3.22;1.48;;;13.80;99.90;;;;;;4998885;28;20176;-89
2022/08/02 02:52:33;;;;;;;2.75;1.67;;;13.90;99.90;;;;;;4997462;28;20184;-85
2022/08/02 02:55:00;;;;;;;2.53;1.70;;;13.90;99.90;;;;;;4997196;28;20318;-92
2022/08/02 02:57:26;;;;;;;4.05;1.80;;;13.80;99.90;;;;;;4981887;28;20211;-85
2022/08/02 02:59:53;;;;;;;2.38;1.52;;;13.70;99.90;;;;;;4977770;28;20184;-86
2022/08/02 03:02:19;;;;;;;4.35;1.85;;;13.70;99.90;;;;;;4977707;28;20187;-88
2022/08/02 03:04:46;;;;;;;3.75;1.60;;;13.60;99.90;;;;;;4977455;28;20180;-89
2022/08/02 03:07:12;;;;;;;3.78;1.58;;;13.60;99.90;;;;;;4977383;28;20235;-91
2022/08/02 03:09:37;;;;;;;1.92;1.50;;;13.70;99.90;;;;;;4991591;28;20191;-85
2022/08/02 03:12:04;;;;;;;4.43;1.73;;;13.70;99.90;;;;;;4997122;28;20266;-85
2022/08/02 03:14:30;;;;;;;4.50;1.83;;;13.70;99.90;;;;;;4996776;28;20669;-84
2022/08/02 03:16:56;;;;;;;2.67;1.45;;;13.40;99.90;;;;;;4998257;28;20183;-88
2022/08/02 03:19:23;;;;;;;2.60;1.77;;;13.40;99.90;;;;;;4996912;28;20184;-88
2022/08/02 03:21:50;;;;;;;3.15;1.60;;;13.40;99.90;;;;;;4996831;28;20231;-85
2022/08/02 03:24:16;;;;;;;3.88;1.60;;;13.30;99.90;;;;;;4995755;28;20199;-87
2022/08/02 03:26:41;;;;;;;3.70;1.73;;;13.40;99.90;;;;;;4997516;28;20212;-86
2022/08/02 03:29:08;;;;;;;4.10;1.63;;;13.40;99.90;;;;;;4996639;28;20259;-87
2022/08/02 03:31:34;;;;;;;3.72;2.00;;;13.50;99.90;;;;;;4997846;28;20168;-85
2022/08/02 03:34:01;;;;;;;3.45;1.85;;;13.40;99.90;;;;;;4996353;28;20175;-89
2022/08/02 03:36:29;;;;;;;3.55;1.73;;;13.40;99.90;;;;;;4996377;28;20172;-88
2022/08/02 03:38:58;;;;;;;2.20;1.52;;;13.40;99.90;;;;;;4988421;28;20184;-89
2022/08/02 03:41:24;;;;;;;4.80;2.03;;;13.40;99.90;;;;;;4978122;28;20169;-88
2022/08/02 03:43:51;;;;;;;4.18;1.90;;;13.40;99.90;;;;;;4977864;28;20582;-87
2022/08/02 03:46:21;;;;;;;5.05;1.70;;;13.40;99.90;;;;;;4976624;28;20208;-87
2022/08/02 03:48:49;;;;;;;4.47;1.60;;;13.40;99.90;;;;;;4976706;28;20208;-88
2022/08/02 03:51:15;;;;;;;2.72;1.60;;;13.40;99.90;;;;;;4976949;28;20165;-84
2022/08/02 03:53:42;;;;;;;4.05;1.80;;;13.40;99.90;;;;;;4977717;28;20180;-84
2022/08/02 03:56:09;;;;;;;4.72;1.80;;;13.40;99.90;;;;;;4977141;28;20187;-84
2022/08/02 03:58:35;;;;;;;3.40;1.98;;;13.40;99.90;;;;;;4976737;28;20177;-83
2022/08/02 04:01:00;;;;;;;2.78;1.55;;;13.40;99.90;;;;;;4976432;28;20521;-83
2022/08/02 04:03:26;;;;;;;6.32;2.25;;;13.50;99.90;;;;;;4977562;28;20255;-85
2022/08/02 04:05:52;;;;;;;4.72;2.10;;;13.40;99.90;;;;;;4976898;28;20593;-85
2022/08/02 04:08:18;;;;;;;2.22;1.60;;;13.40;99.90;;;;;;4996769;28;20172;-85
2022/08/02 04:11:29;;;;;;;2.58;1.40;;;13.40;99.90;;;;;;5012448;28;20324;-84
2022/08/02 04:13:36;;;;;;;2.72;1.23;;;13.50;99.90;;;;;;5002268;28;20206;-85
2022/08/02 04:16:11;;;;;;;2.50;1.30;;;13.50;99.90;;;;;;4998674;28;20255;-87
2022/08/02 04:18:55;;;;;;;2.05;1.30;;;13.50;99.90;;;;;;5016247;28;20217;-84
2022/08/02 04:21:24;;;;;;;1.70;1.40;;;13.40;99.90;;;;;;5016469;28;20163;-92
2022/08/02 04:23:51;;;;;;;2.35;1.20;;;13.40;99.90;;;;;;5016223;28;20206;-87
2022/08/02 04:26:17;;;;;;;3.00;1.60;;;13.40;99.90;;;;;;5016270;28;20222;-91
2022/08/02 04:28:44;;;;;;;3.33;1.45;;;13.40;99.90;;;;;;4998315;28;20614;-89
2022/08/02 04:31:09;;;;;;;4.55;1.52;;;13.40;99.90;;;;;;5016190;28;20175;-91
2022/08/02 04:33:36;;;;;;;4.25;1.50;;;13.40;99.90;;;;;;4998831;28;20179;-89
2022/08/02 04:36:04;;;;;;;2.47;1.52;;;13.40;99.90;;;;;;4998681;28;20183;-92
2022/08/02 04:38:30;;;;;;;4.30;1.75;;;13.40;99.90;;;;;;5015961;28;20179;-89
2022/08/02 04:40:55;;;;;;;2.00;1.35;;;13.40;99.90;;;;;;4998890;28;20229;-89
2022/08/02 04:43:22;;;;;;;3.65;1.63;;;13.50;99.90;;;;;;4998386;28;20270;-88
2022/08/02 04:45:50;;;;;;;2.20;1.42;;;13.60;99.90;;;;;;4998277;28;20218;-85
2022/08/02 04:48:16;;;;;;;3.15;1.42;;;13.50;99.90;;;;;;4998037;28;20179;-86
2022/08/02 04:50:42;;;;;;;4.18;1.70;;;13.50;99.90;;;;;;4997977;28;20179;-86
2022/08/02 04:53:08;;;;;;;3.85;1.67;;;13.50;99.90;;;;;;4997973;28;20258;-86
2022/08/02 04:55:33;;;;;;;3.40;1.67;;;13.50;99.90;;;;;;4997829;28;20175;-86
2022/08/02 04:57:59;;;;;;;2.88;1.55;;;13.50;99.90;;;;;;5015377;28;20512;-86
2022/08/02 05:00:27;;;;;;;2.67;1.77;;;13.60;99.90;;;;;;4997637;28;20179;-85
2022/08/02 05:02:55;;;;;;;1.60;1.50;;;13.70;99.90;;;;;;4997267;28;20175;-85
2022/08/02 05:05:21;;;;;;;3.97;2.00;;;13.70;99.90;;;;;;4997483;28;20257;-85
2022/08/02 05:07:46;;;;;;;2.40;1.65;;;13.70;99.90;;;;;;4997439;28;20230;-85
2022/08/02 05:10:12;;;;;;;3.25;1.35;;;13.70;99.90;;;;;;4983543;28;20401;-86
2022/08/02 05:12:38;;;;;;;2.85;1.50;;;13.80;99.90;;;;;;4978163;28;20180;-85
2022/08/02 05:15:05;;;;;;;4.43;1.50;;;13.90;99.90;;;;;;4977808;28;20182;-85
2022/08/02 05:17:31;;;;;;;4.55;2.05;;;13.80;99.90;;;;;;4995164;28;20207;-85
2022/08/02 05:19:57;;;;;;;4.63;1.80;;;13.90;99.90;;;;;;4977797;28;20172;-85
2022/08/02 05:22:22;;;;;;;5.13;2.00;;;14.00;99.90;;;;;;4977867;28;20242;-84
2022/08/02 05:24:48;;;;;;;4.78;2.17;;;14.10;99.90;;;;;;4977583;28;20519;-85
2022/08/02 05:27:13;;;;;;;4.70;2.10;;;14.10;99.90;;;;;;4977743;28;20619;-84
2022/08/02 05:29:39;;;;;;;7.05;2.15;;;14.20;99.90;;;;;;4987541;28;20198;-84
2022/08/02 05:32:05;;;;;;;5.40;2.05;;;14.30;99.90;;;;;;4997210;28;20218;-84
2022/08/02 05:34:31;;;;;;;3.83;2.03;;;14.40;99.90;;;;;;5012164;28;20617;-84
2022/08/02 05:36:56;;;;;;;4.15;2.40;;;14.60;99.90;;;;;;5013907;28;20178;-86
2022/08/02 05:39:22;;;;;;;6.50;2.20;;;14.60;99.90;;;;;;4996899;28;20657;-85
2022/08/02 05:41:48;;;;;;;5.93;2.28;;;14.60;99.90;;;;;;5006708;28;20260;-86
2022/08/02 05:44:13;;;;;;;6.82;2.10;;;14.60;99.90;;;;;;4985677;28;20187;-85
2022/08/02 05:46:39;;;;;;;4.70;2.13;;;14.60;99.90;;;;;;4996665;28;20658;-85
2022/08/02 05:49:04;;;;;;;8.48;2.55;;;14.60;99.90;;;;;;5014077;28;20244;-86
2022/08/02 05:51:50;;;;;;;5.68;2.53;;;14.60;99.90;;;;;;4996220;28;20186;-86
2022/08/02 05:54:30;;;;;;;6.72;2.60;;;14.70;99.90;;;;;;5009656;28;20186;-85
2022/08/02 05:57:05;;;;;;;4.03;2.05;;;14.70;99.90;;;;;;5013297;28;20421;-85
2022/08/02 06:00:09;;;;;;;6.57;2.60;;;14.80;99.90;;;;;;4995119;28;20256;-86
2022/08/02 06:02:41;;;;;;;5.57;2.50;;;14.90;99.90;;;;;;5013727;28;20171;-85
2022/08/02 06:05:19;;;;;;;5.47;2.38;;;15.00;99.90;;;;;;4995786;28;20226;-86
2022/08/02 06:07:46;;;;;;;5.25;2.25;;;15.00;99.90;;;;;;4995944;28;20281;-85
2022/08/02 06:10:14;;;;;;;5.95;2.50;;;15.10;99.90;;;;;;4996086;28;20181;-86
2022/08/02 06:13:05;;;;;;;5.85;2.45;;;15.10;99.90;;;;;;4996554;28;20490;-85
2022/08/02 06:15:33;;;;;;;13.40;3.50;;;15.20;99.90;;;;;;5002453;28;20195;-85
2022/08/02 06:18:00;;;;;;;5.75;2.35;;;15.30;99.90;;;;;;5000960;28;20596;-86
2022/08/02 06:20:34;;;;;;;6.82;2.70;;;15.30;99.90;;;;;;5002814;28;20496;-84
2022/08/02 06:23:03;;;;;;;5.53;1.77;;;15.30;99.90;;;;;;5002869;28;20560;-86
2022/08/02 06:25:30;;;;;;;7.88;2.03;;;15.40;99.90;;;;;;5019557;28;20206;-85
2022/08/02 06:27:57;;;;;;;6.60;2.08;;;15.50;99.90;;;;;;5020828;28;20210;-91
2022/08/02 06:30:23;;;;;;;3.67;1.90;;;15.50;99.90;;;;;;5003176;28;20221;-89
2022/08/02 06:32:50;;;;;;;7.15;2.38;;;15.60;99.90;;;;;;5020688;28;20183;-91
2022/08/02 06:35:16;;;;;;;6.05;1.95;;;15.70;99.90;;;;;;5002871;28;20233;-90
2022/08/02 06:37:43;;;;;;;4.53;1.75;;;15.80;99.90;;;;;;5002815;28;20183;-85
2022/08/02 06:40:26;;;;;;;5.07;1.88;;;15.90;99.90;;;;;;5003128;28;20175;-85
2022/08/02 06:43:09;;;;;;;4.32;1.88;;;16.00;99.90;;;;;;5002876;28;20233;-82
2022/08/02 06:45:35;;;;;;;4.90;2.22;;;16.10;99.90;;;;;;5020555;28;20297;-83
2022/08/02 06:48:01;;;;;;;6.60;2.08;;;16.20;99.90;;;;;;5020437;28;20181;-85
2022/08/02 06:50:29;;;;;;;6.85;1.70;;;16.30;99.90;;;;;;5003016;28;20175;-84
2022/08/02 06:52:55;;;;;;;5.50;1.83;;;16.40;99.90;;;;;;5002080;28;20562;-84
2022/08/02 06:55:22;;;;;;;6.70;1.65;;;16.60;99.90;;;;;;5000997;28;20172;-82
2022/08/02 06:57:47;;;;;;;6.38;2.10;;;16.70;99.90;;;;;;4983586;28;20519;-85
2022/08/02 07:00:14;;;;;;;5.95;1.90;;;16.80;99.90;;;;;;4983506;28;20615;-83
2022/08/02 07:02:39;;;;;;;7.22;1.88;;;16.90;99.90;;;;;;5015879;28;20168;-83
2022/08/02 07:07:37;;;;;;;5.97;1.90;;;17.10;99.90;;;;;;4858430;28;20240;-91
2022/08/02 07:10:04;;;;;;;5.13;1.50;;;17.30;99.90;;;;;;4962057;28;20183;-90
2022/08/02 07:12:32;;;;;;;4.57;1.60;;;17.50;99.90;;;;;;4979455;28;20199;-88
2022/08/02 07:15:01;;;;;;;5.60;2.03;;;17.70;99.90;;;;;;4980376;28;20299;-88
2022/08/02 07:17:27;;;;;;;4.30;1.60;;;17.90;99.90;;;;;;4980536;28;20287;-91
2022/08/02 07:19:53;;;;;;;3.80;1.60;;;18.00;99.90;;;;;;4980236;28;20238;-88
2022/08/02 07:22:21;;;;;;;8.32;2.00;;;18.20;99.90;;;;;;4985469;28;20187;-90
2022/08/02 07:24:48;;;;;;;5.80;1.73;;;18.30;99.90;;;;;;4999351;28;20513;-90
2022/08/02 07:27:14;;;;;;;7.57;1.90;;;18.40;99.90;;;;;;4984941;28;20230;-91
2022/08/02 07:29:40;;;;;;;7.97;2.20;;;18.50;99.90;;;;;;4977133;28;20227;-91
2022/08/02 07:32:06;;;;;;;2.85;1.65;;;18.70;99.90;;;;;;4977219;28;20164;-92
2022/08/02 07:34:32;;;;;;;7.60;2.20;;;18.80;99.90;;;;;;4977135;28;20190;-91
2022/08/02 07:36:58;;;;;;;4.53;1.70;;;18.80;99.90;;;;;;4976497;28;20210;-89
2022/08/02 07:39:24;;;;;;;9.07;1.60;;;18.80;99.90;;;;;;4977420;28;20214;-90
2022/08/02 07:41:51;;;;;;;6.15;1.70;;;18.80;99.90;;;;;;4994664;28;20188;-91
2022/08/02 07:44:17;;;;;;;7.32;1.70;;;18.80;99.90;;;;;;4976874;28;20184;-92
2022/08/02 07:46:43;;;;;;;10.50;1.80;;;18.90;99.90;;;;;;4976813;28;20215;-91
2022/08/02 07:49:09;;;;;;;5.13;2.13;;;18.90;99.90;;;;;;4968702;28;20181;-91
2022/08/02 07:51:35;;;;;;;5.55;1.67;;;19.00;99.90;;;;;;4957430;28;20568;-93
2022/08/02 07:54:01;;;;;;;4.03;1.55;;;19.20;99.90;;;;;;4966601;28;20211;-90
2022/08/02 07:56:27;;;;;;;3.65;1.70;;;19.40;99.90;;;;;;4976354;28;20743;-91
2022/08/02 07:58:53;;;;;;;7.10;1.92;;;19.50;99.90;;;;;;4977111;28;20184;-89
2022/08/02 08:01:19;;;;;;;6.15;1.65;;;19.70;99.90;;;;;;4977379;28;20230;-88
2022/08/02 08:03:45;;;;;;;6.32;1.83;;;19.90;99.90;;;;;;4972146;28;20184;-89
2022/08/02 08:06:11;;;;;;;7.05;1.63;;;20.00;99.90;;;;;;4974748;28;20223;-92
2022/08/02 08:08:36;;;;;;;6.90;1.77;;;20.10;99.90;;;;;;4972509;28;20180;-91
2022/08/02 08:11:02;;;;;;;6.95;1.80;;;20.20;99.90;;;;;;4975579;28;20546;-90
2022/08/02 08:13:28;;;;;;;6.78;2.20;;;20.40;99.90;;;;;;4976719;28;20175;-88
2022/08/02 08:15:54;;;;;;;7.03;1.95;;;20.50;99.90;;;;;;4993504;28;20688;-88
2022/08/02 08:18:22;;;;;;;7.35;1.80;;;20.60;99.90;;;;;;4975104;28;20196;-90
2022/08/02 08:20:49;;;;;;;5.88;1.98;;;20.60;99.90;;;;;;4976066;28;20674;-89
2022/08/02 08:23:14;;;;;;;4.53;1.90;;;20.70;99.90;;;;;;4975969;28;20167;-89
2022/08/02 08:25:42;;;;;;;6.20;1.80;;;20.80;99.90;;;;;;4975535;28;20618;-89
2022/08/02 08:28:08;;;;;;;3.67;1.70;;;20.90;99.90;;;;;;5004881;28;20202;-89
2022/08/02 08:30:33;;;;;;;3.65;1.52;;;21.00;99.90;;;;;;5012713;28;20164;-88
2022/08/02 08:32:59;;;;;;;5.00;2.00;;;21.10;99.90;;;;;;4995030;28;20578;-89
2022/08/02 08:35:25;;;;;;;5.10;2.00;;;21.30;99.90;;;;;;4994807;28;20590;-88
2022/08/02 08:37:51;;;;;;;4.93;2.15;;;21.30;99.90;;;;;;4994519;28;20662;-88
2022/08/02 08:40:18;;;;;;;3.25;1.58;;;21.40;99.80;;;;;;4990540;28;20613;-90
2022/08/02 08:42:43;;;;;;;4.20;1.75;;;21.60;99.90;;;;;;4975581;28;20179;-92
2022/08/02 08:45:10;;;;;;;5.95;2.10;;;21.60;99.90;;;;;;4975451;28;20290;-89
2022/08/02 08:47:38;;;;;;;6.55;2.13;;;21.80;99.90;;;;;;4975566;28;20338;-87
2022/08/02 08:50:24;;;;;;;7.05;1.60;;;21.90;99.90;;;;;;4975220;28;20165;-88
2022/08/02 08:53:00;;;;;;;6.20;2.05;;;22.00;99.60;;;;;;4975105;28;20601;-90
2022/08/02 08:55:27;;;;;;;3.60;1.60;;;22.10;99.90;;;;;;4974936;28;20266;-88
2022/08/02 08:57:54;;;;;;;6.05;1.80;;;22.20;99.30;;;;;;4964622;28;20217;-87
2022/08/02 09:00:20;;;;;;;6.38;1.80;;;22.30;99.20;;;;;;4992082;28;20202;-89
2022/08/02 09:02:46;;;;;;;3.08;1.75;;;22.50;98.90;;;;;;4967455;28;20196;-88
2022/08/02 09:05:14;;;;;;;4.85;2.00;;;22.60;98.80;;;;;;4973200;28;20214;-88
2022/08/02 09:07:43;;;;;;;2.55;1.48;;;22.80;98.50;;;;;;4937327;29;20244;-88
2022/08/02 09:10:41;;;;;;;6.47;2.13;;;22.80;99.00;;;;;;4933542;29;20200;-89
2022/08/02 09:13:28;;;;;;;3.10;1.70;;;23.00;97.20;;;;;;4934006;29;20684;-89
2022/08/02 09:16:04;;;;;;;6.82;1.90;;;23.00;97.10;;;;;;4935505;29;20419;-88
2022/08/02 09:18:38;;;;;;;8.20;2.30;;;23.00;96.30;;;;;;4933684;29;20185;-88
2022/08/02 09:21:07;;;;;;;3.58;1.50;;;23.10;96.20;;;;;;4933461;29;20658;-89
2022/08/02 09:23:35;;;;;;;3.63;1.90;;;23.00;96.10;;;;;;4935149;29;20162;-89
2022/08/02 09:26:13;;;;;;;5.50;1.90;;;23.00;97.00;;;;;;4933120;29;20248;-90
2022/08/02 09:28:44;;;;;;;3.90;1.85;;;23.10;95.70;;;;;;4933039;29;20298;-89
2022/08/02 09:31:19;;;;;;;6.00;2.13;;;23.00;96.40;;;;;;4933431;29;20192;-90
2022/08/02 09:33:53;;;;;;;2.75;1.50;;;23.00;95.30;;;;;;4932885;29;20177;-91
2022/08/02 09:36:19;;;;;;;3.80;1.63;;;22.90;95.80;;;;;;4948983;28;20223;-89
2022/08/02 09:39:00;;;;;;;4.43;1.60;;;22.80;95.60;;;;;;4934979;28;20549;-90
2022/08/02 09:41:39;;;;;;;6.22;2.10;;;22.90;96.00;;;;;;4946161;29;20196;-87
2022/08/02 09:44:06;;;;;;;4.30;1.90;;;22.90;95.70;;;;;;4954322;28;20168;-90
2022/08/02 09:46:41;;;;;;;4.43;2.03;;;23.00;94.80;;;;;;4953231;29;20227;-92
2022/08/02 09:49:15;;;;;;;2.90;1.35;;;23.10;94.90;;;;;;4953785;28;20197;-87
2022/08/02 09:51:45;;;;;;;4.05;1.75;;;23.20;94.60;;;;;;4969461;28;20177;-91
2022/08/02 09:54:19;;;;;;;3.15;1.52;;;23.30;94.90;;;;;;4955829;28;20158;-90
2022/08/02 09:56:49;;;;;;;2.65;1.73;;;23.40;94.40;;;;;;4953158;29;20545;-92
2022/08/02 09:59:20;;;;;;;4.70;1.85;;;23.50;94.70;;;;;;4970495;28;20269;-90
2022/08/02 10:01:48;;;;;;;4.45;1.63;;;23.70;94.80;;;;;;4957466;28;20196;-91
2022/08/02 10:04:14;;;;;;;4.57;1.58;;;23.80;94.60;;;;;;4955018;28;20199;-91
2022/08/02 10:06:43;;;;;;;3.38;2.00;;;24.00;94.20;;;;;;4952794;28;20236;-91
2022/08/02 10:09:11;;;;;;;4.00;1.30;;;24.10;94.20;;;;;;4955788;29;20184;-88
2022/08/02 10:11:37;;;;;;;3.45;1.65;;;24.20;93.70;;;;;;4955884;28;20158;-87
2022/08/02 10:14:06;;;;;;;4.03;1.70;;;24.10;93.80;;;;;;4953052;29;20185;-89
2022/08/02 10:16:37;;;;;;;5.70;1.52;;;24.10;93.30;;;;;;4952328;28;20218;-90
2022/08/02 10:19:03;;;;;;;5.32;1.88;;;24.20;93.50;;;;;;4954022;29;20552;-88
2022/08/02 10:21:44;;;;;;;2.47;1.20;;;24.30;93.70;;;;;;4954813;29;20196;-92
2022/08/02 10:24:13;;;;;;;2.45;1.10;;;24.50;93.00;;;;;;4954990;29;20276;-87
2022/08/02 10:26:44;;;;;;;2.97;1.40;;;24.60;91.30;;;;;;4955826;28;20299;-88
2022/08/02 10:29:14;;;;;;;2.85;1.60;;;24.60;91.70;;;;;;4955299;29;20665;-89
2022/08/02 10:31:50;;;;;;;3.45;1.30;;;24.70;92.40;;;;;;4952836;29;20236;-87
2022/08/02 10:34:23;;;;;;;4.53;1.63;;;24.80;92.10;;;;;;4955073;28;20231;-87
2022/08/02 10:36:51;;;;;;;2.22;1.70;;;24.80;92.10;;;;;;4954662;28;20209;-87
2022/08/02 10:39:17;;;;;;;2.17;1.15;;;24.90;92.20;;;;;;4954990;29;20174;-88
2022/08/02 10:41:48;;;;;;;5.43;1.58;;;24.90;91.60;;;;;;4954942;29;20196;-88
2022/08/02 10:44:31;;;;;;;2.70;1.38;;;25.00;91.50;;;;;;4956399;29;20533;-89
2022/08/02 10:47:22;;;;;;;4.85;1.67;;;25.00;91.30;;;;;;4954044;28;20217;-88
2022/08/02 10:49:56;;;;;;;2.25;1.40;;;25.10;92.20;;;;;;4955729;29;20264;-90
2022/08/02 10:52:31;;;;;;;1.58;1.20;;;25.10;91.20;;;;;;4953777;29;20181;-88
2022/08/02 10:55:17;;;;;;;1.75;1.20;;;25.10;90.90;;;;;;4937160;28;20185;-87
2022/08/02 10:57:43;;;;;;;3.00;1.48;;;25.30;92.00;;;;;;4933384;29;20206;-91
2022/08/02 11:00:22;;;;;;;3.55;1.35;;;25.40;91.40;;;;;;4936580;29;20170;-88
2022/08/02 11:02:48;;;;;;;3.63;1.42;;;25.50;91.30;;;;;;4946829;28;20180;-87
2022/08/02 11:05:16;;;;;;;3.67;1.48;;;25.60;90.40;;;;;;4974290;28;20204;-88
2022/08/02 11:07:44;;;;;;;1.70;1.25;;;25.70;89.60;;;;;;4974640;28;20235;-87
2022/08/02 11:10:25;;;;;;;3.08;1.35;;;25.70;90.30;;;;;;4974390;28;20185;-89
2022/08/02 11:13:14;;;;;;;3.40;1.65;;;25.70;90.80;;;;;;4956093;29;20174;-91
2022/08/02 11:16:03;;;;;;;2.30;1.25;;;25.80;89.60;;;;;;4956329;29;20174;-89
2022/08/02 11:18:48;;;;;;;2.47;1.45;;;25.90;90.40;;;;;;4956246;29;20236;-87
2022/08/02 11:21:25;;;;;;;1.92;1.27;;;26.00;90.70;;;;;;4956211;29;20173;-89
2022/08/02 11:23:51;;;;;;;2.67;1.30;;;26.10;89.40;;;;;;4957261;29;20720;-88
2022/08/02 11:26:29;;;;;;;3.00;1.35;;;26.10;89.40;;;;;;4956533;28;20578;-92
2022/08/02 11:28:57;;;;;;;2.65;1.20;;;26.20;90.60;;;;;;4957572;28;20177;-88
2022/08/02 11:31:23;;;;;;;3.58;1.30;;;26.30;90.50;;;;;;4956488;29;20177;-89
2022/08/02 11:33:50;;;;;;;2.05;1.25;;;26.30;89.80;;;;;;4957113;28;20276;-89
2022/08/02 11:36:16;;;;;;;2.65;1.38;;;26.30;89.00;;;;;;4957836;28;20204;-88
2022/08/02 11:38:42;;;;;;;2.65;1.40;;;26.30;88.00;;;;;;4956945;29;20174;-91
2022/08/02 11:41:09;;;;;;;2.22;1.45;;;26.40;88.10;;;;;;4956857;29;20228;-89
2022/08/02 11:43:35;;;;;;;2.58;1.50;;;26.40;88.10;;;;;;4954583;29;20220;-89
2022/08/02 11:46:11;;;;;;;4.65;1.52;;;26.40;87.40;;;;;;4954996;28;20203;-90
2022/08/02 11:48:42;;;;;;;2.38;1.40;;;26.50;88.30;;;;;;4937261;29;20190;-88
2022/08/02 11:51:10;;;;;;;2.60;1.38;;;26.60;84.20;;;;;;4935571;29;20229;-88
2022/08/02 11:53:49;;;;;;;2.55;1.20;;;26.70;86.00;;;;;;4937441;29;20642;-91
2022/08/02 11:56:16;;;;;;;3.30;1.50;;;26.80;86.20;;;;;;4955604;29;20177;-87
2022/08/02 11:59:09;;;;;;;3.08;1.40;;;26.80;86.10;;;;;;4943488;28;20286;-91
2022/08/02 12:01:38;;;;;;;2.20;1.38;;;26.80;87.10;;;;;;4956192;29;20233;-88
2022/08/02 12:04:06;;;;;;;3.33;1.40;;;26.90;85.80;;;;;;4956922;29;20188;-87
2022/08/02 12:06:33;;;;;;;1.73;1.30;;;26.90;86.90;;;;;;4957826;28;20591;-88
2022/08/02 12:09:06;;;;;;;1.30;1.17;;;26.90;87.20;;;;;;4959030;29;20177;-87
2022/08/02 12:11:32;;;;;;;3.20;1.30;;;27.00;87.30;;;;;;4954921;28;20204;-92
2022/08/02 12:13:59;;;;;;;1.75;1.10;;;27.00;85.00;;;;;;4956854;29;20672;-87
2022/08/02 12:19:22;;;;;;;3.97;1.13;;;27.20;85.70;;;;;;4957820;29;20201;-87
2022/08/02 12:22:24;;;;;;;4.15;1.40;;;27.30;84.70;;;;;;4957451;29;20228;-88
2022/08/02 12:24:57;;;;;;;3.00;1.20;;;27.30;84.60;;;;;;4957552;29;20207;-88
2022/08/02 12:27:30;;;;;;;4.28;1.30;;;27.30;85.50;;;;;;4955609;28;20216;-87
2022/08/02 12:30:06;;;;;;;2.35;1.50;;;27.30;83.80;;;;;;4938263;29;20174;-90
2022/08/02 12:32:32;;;;;;;4.15;1.38;;;27.20;83.90;;;;;;4937595;29;20162;-87
2022/08/02 12:35:08;;;;;;;1.73;1.33;;;27.20;84.40;;;;;;4939619;29;20564;-87
2022/08/02 12:37:35;;;;;;;2.17;1.25;;;27.30;84.30;;;;;;4945663;28;20208;-87
2022/08/02 12:40:33;;;;;;;3.03;1.30;;;27.30;84.50;;;;;;4957293;29;20188;-91
2022/08/02 12:43:04;;;;;;;2.25;1.33;;;27.30;83.20;;;;;;4914904;29;20220;-90
2022/08/02 12:45:43;;;;;;;5.25;1.42;;;27.20;83.30;;;;;;4956963;29;20243;-90
2022/08/02 12:48:09;;;;;;;5.10;1.38;;;27.20;85.90;;;;;;4953810;28;20201;-88
2022/08/02 12:50:36;;;;;;;3.67;1.25;;;27.00;83.40;;;;;;4953577;29;20165;-90
2022/08/02 12:53:09;;;;;;;2.70;1.27;;;26.90;85.90;;;;;;4956916;29;20174;-86
2022/08/02 12:55:45;;;;;;;1.30;1.10;;;26.90;83.30;;;;;;4957447;29;20538;-88
2022/08/02 12:58:11;;;;;;;4.07;1.25;;;26.90;83.20;;;;;;4954265;28;20209;-86
2022/08/02 13:00:38;;;;;;;8.52;1.30;;;27.10;84.00;;;;;;4954434;29;20232;-88
2022/08/02 13:03:05;;;;;;;6.93;1.20;;;27.10;83.20;;;;;;4954316;29;20185;-89
2022/08/02 13:05:34;;;;;;;2.35;1.40;;;27.20;81.90;;;;;;4953837;29;20291;-89